sensor_id;sensor_type;location;lat;lon;timestamp;P1;durP1;ratioP1;P2;durP2;ratioP2
3901;SDS011;1966;49.908;9.156;2022-12-11T00:03:51;23.63;;;13.60;;
3901;SDS011;1966;49.908;9.156;2022-12-11T00:08:51;23.30;;;13.83;;
3901;SDS011;1966;49.908;9.156;2022-12-11T00:13:51;28.70;;;16.00;;
3901;SDS011;1966;49.908;9.156;2022-12-11T00:18:51;24.43;;;14.27;;
3901;SDS011;1966;49.908;9.156;2022-12-11T00:23:51;28.17;;;15.10;;
3901;SDS011;1966;49.908;9.156;2022-12-11T00:28:51;27.33;;;15.30;;
3901;SDS011;1966;49.908;9.156;2022-12-11T00:33:52;31.00;;;16.40;;
3901;SDS011;1966;49.908;9.156;2022-12-11T00:38:51;26.33;;;15.30;;
3901;SDS011;1966;49.908;9.156;2022-12-11T00:43:50;27.43;;;16.60;;
3901;SDS011;1966;49.908;9.156;2022-12-11T00:48:51;30.97;;;17.37;;
3901;SDS011;1966;49.908;9.156;2022-12-11T00:53:50;36.27;;;19.20;;
3901;SDS011;1966;49.908;9.156;2022-12-11T00:58:50;37.33;;;20.33;;
3901;SDS011;1966;49.908;9.156;2022-12-11T01:03:49;30.73;;;17.30;;
3901;SDS011;1966;49.908;9.156;2022-12-11T01:08:50;31.00;;;17.60;;
3901;SDS011;1966;49.908;9.156;2022-12-11T01:14:11;33.97;;;18.03;;
3901;SDS011;1966;49.908;9.156;2022-12-11T01:19:11;32.17;;;18.63;;
3901;SDS011;1966;49.908;9.156;2022-12-11T01:24:11;34.13;;;18.77;;
3901;SDS011;1966;49.908;9.156;2022-12-11T01:29:11;31.23;;;17.83;;
3901;SDS011;1966;49.908;9.156;2022-12-11T01:34:10;32.50;;;18.37;;
3901;SDS011;1966;49.908;9.156;2022-12-11T01:39:09;37.67;;;19.83;;
3901;SDS011;1966;49.908;9.156;2022-12-11T01:49:25;31.40;;;17.07;;
3901;SDS011;1966;49.908;9.156;2022-12-11T01:54:25;35.47;;;18.17;;
3901;SDS011;1966;49.908;9.156;2022-12-11T01:59:26;32.83;;;16.50;;
3901;SDS011;1966;49.908;9.156;2022-12-11T02:04:29;29.67;;;16.93;;
3901;SDS011;1966;49.908;9.156;2022-12-11T02:09:29;27.93;;;14.57;;
3901;SDS011;1966;49.908;9.156;2022-12-11T02:14:31;24.73;;;14.93;;
3901;SDS011;1966;49.908;9.156;2022-12-11T02:19:48;23.90;;;13.17;;
3901;SDS011;1966;49.908;9.156;2022-12-11T02:24:52;27.90;;;14.00;;
3901;SDS011;1966;49.908;9.156;2022-12-11T02:29:59;28.20;;;15.27;;
3901;SDS011;1966;49.908;9.156;2022-12-11T02:35:01;27.00;;;14.90;;
3901;SDS011;1966;49.908;9.156;2022-12-11T02:40:03;28.77;;;16.50;;
3901;SDS011;1966;49.908;9.156;2022-12-11T02:45:07;30.80;;;15.30;;
3901;SDS011;1966;49.908;9.156;2022-12-11T02:50:08;28.63;;;15.10;;
3901;SDS011;1966;49.908;9.156;2022-12-11T02:55:08;29.97;;;15.60;;
3901;SDS011;1966;49.908;9.156;2022-12-11T03:00:11;29.73;;;15.40;;
3901;SDS011;1966;49.908;9.156;2022-12-11T03:05:11;26.90;;;14.17;;
3901;SDS011;1966;49.908;9.156;2022-12-11T03:10:12;23.80;;;13.60;;
3901;SDS011;1966;49.908;9.156;2022-12-11T03:15:14;25.37;;;14.07;;
3901;SDS011;1966;49.908;9.156;2022-12-11T03:20:16;26.93;;;15.10;;
3901;SDS011;1966;49.908;9.156;2022-12-11T03:25:20;25.97;;;14.63;;
3901;SDS011;1966;49.908;9.156;2022-12-11T03:30:22;26.67;;;14.47;;
3901;SDS011;1966;49.908;9.156;2022-12-11T03:35:23;23.33;;;13.47;;
3901;SDS011;1966;49.908;9.156;2022-12-11T03:40:23;24.23;;;13.47;;
3901;SDS011;1966;49.908;9.156;2022-12-11T03:45:25;26.00;;;12.77;;
3901;SDS011;1966;49.908;9.156;2022-12-11T03:50:26;30.00;;;14.73;;
3901;SDS011;1966;49.908;9.156;2022-12-11T03:55:26;29.37;;;16.23;;
3901;SDS011;1966;49.908;9.156;2022-12-11T04:00:27;26.33;;;15.70;;
3901;SDS011;1966;49.908;9.156;2022-12-11T04:05:27;30.17;;;15.67;;
3901;SDS011;1966;49.908;9.156;2022-12-11T04:10:26;27.37;;;13.97;;
3901;SDS011;1966;49.908;9.156;2022-12-11T04:15:25;26.80;;;14.33;;
3901;SDS011;1966;49.908;9.156;2022-12-11T04:20:26;24.83;;;14.23;;
3901;SDS011;1966;49.908;9.156;2022-12-11T04:25:43;22.70;;;12.70;;
3901;SDS011;1966;49.908;9.156;2022-12-11T04:30:46;22.00;;;11.47;;
3901;SDS011;1966;49.908;9.156;2022-12-11T04:35:47;20.47;;;12.30;;
3901;SDS011;1966;49.908;9.156;2022-12-11T04:40:46;19.93;;;12.13;;
3901;SDS011;1966;49.908;9.156;2022-12-11T04:45:46;29.10;;;13.70;;
3901;SDS011;1966;49.908;9.156;2022-12-11T04:50:45;28.07;;;15.10;;
3901;SDS011;1966;49.908;9.156;2022-12-11T04:55:46;29.50;;;15.13;;
3901;SDS011;1966;49.908;9.156;2022-12-11T05:00:45;31.70;;;16.37;;
3901;SDS011;1966;49.908;9.156;2022-12-11T05:05:46;25.23;;;13.70;;
3901;SDS011;1966;49.908;9.156;2022-12-11T05:10:54;23.17;;;13.13;;
3901;SDS011;1966;49.908;9.156;2022-12-11T05:15:54;25.10;;;12.93;;
3901;SDS011;1966;49.908;9.156;2022-12-11T05:20:54;21.57;;;12.67;;
3901;SDS011;1966;49.908;9.156;2022-12-11T05:25:56;17.93;;;11.10;;
3901;SDS011;1966;49.908;9.156;2022-12-11T05:30:56;32.07;;;16.67;;
3901;SDS011;1966;49.908;9.156;2022-12-11T05:35:56;40.33;;;19.87;;
3901;SDS011;1966;49.908;9.156;2022-12-11T05:40:57;33.77;;;17.00;;
3901;SDS011;1966;49.908;9.156;2022-12-11T05:46:03;33.00;;;16.53;;
3901;SDS011;1966;49.908;9.156;2022-12-11T05:51:03;23.60;;;13.80;;
3901;SDS011;1966;49.908;9.156;2022-12-11T05:56:05;31.03;;;16.17;;
3901;SDS011;1966;49.908;9.156;2022-12-11T06:01:05;26.83;;;14.60;;
3901;SDS011;1966;49.908;9.156;2022-12-11T06:06:06;28.13;;;14.60;;
3901;SDS011;1966;49.908;9.156;2022-12-11T06:11:07;24.97;;;14.23;;
3901;SDS011;1966;49.908;9.156;2022-12-11T06:16:07;26.90;;;14.03;;
3901;SDS011;1966;49.908;9.156;2022-12-11T06:21:13;23.30;;;12.43;;
3901;SDS011;1966;49.908;9.156;2022-12-11T06:26:15;24.47;;;13.03;;
3901;SDS011;1966;49.908;9.156;2022-12-11T06:31:15;25.63;;;13.80;;
3901;SDS011;1966;49.908;9.156;2022-12-11T06:36:15;25.10;;;13.47;;
3901;SDS011;1966;49.908;9.156;2022-12-11T06:41:16;26.57;;;14.27;;
3901;SDS011;1966;49.908;9.156;2022-12-11T06:46:17;25.03;;;14.50;;
3901;SDS011;1966;49.908;9.156;2022-12-11T06:51:17;23.87;;;13.50;;
3901;SDS011;1966;49.908;9.156;2022-12-11T06:56:18;24.40;;;13.87;;
3901;SDS011;1966;49.908;9.156;2022-12-11T07:01:18;27.20;;;14.10;;
3901;SDS011;1966;49.908;9.156;2022-12-11T07:06:18;25.43;;;13.70;;
3901;SDS011;1966;49.908;9.156;2022-12-11T07:11:19;21.10;;;12.80;;
3901;SDS011;1966;49.908;9.156;2022-12-11T07:16:19;25.07;;;13.70;;
3901;SDS011;1966;49.908;9.156;2022-12-11T07:21:18;24.80;;;14.37;;
3901;SDS011;1966;49.908;9.156;2022-12-11T07:26:20;25.90;;;13.70;;
3901;SDS011;1966;49.908;9.156;2022-12-11T07:31:20;26.30;;;12.87;;
3901;SDS011;1966;49.908;9.156;2022-12-11T07:36:20;40.17;;;18.53;;
3901;SDS011;1966;49.908;9.156;2022-12-11T07:41:21;34.23;;;18.13;;
3901;SDS011;1966;49.908;9.156;2022-12-11T07:46:21;40.67;;;21.40;;
3901;SDS011;1966;49.908;9.156;2022-12-11T07:51:21;36.13;;;18.47;;
3901;SDS011;1966;49.908;9.156;2022-12-11T07:56:25;28.60;;;15.60;;
3901;SDS011;1966;49.908;9.156;2022-12-11T08:01:24;31.23;;;17.00;;
3901;SDS011;1966;49.908;9.156;2022-12-11T08:06:26;35.87;;;16.57;;
3901;SDS011;1966;49.908;9.156;2022-12-11T08:11:27;32.13;;;18.93;;
3901;SDS011;1966;49.908;9.156;2022-12-11T08:16:26;35.80;;;19.47;;
3901;SDS011;1966;49.908;9.156;2022-12-11T08:21:26;35.67;;;18.90;;
3901;SDS011;1966;49.908;9.156;2022-12-11T08:26:28;33.63;;;18.40;;
3901;SDS011;1966;49.908;9.156;2022-12-11T08:31:28;36.70;;;18.40;;
3901;SDS011;1966;49.908;9.156;2022-12-11T08:36:27;34.53;;;19.30;;
3901;SDS011;1966;49.908;9.156;2022-12-11T08:41:28;39.90;;;22.70;;
3901;SDS011;1966;49.908;9.156;2022-12-11T08:46:29;40.40;;;22.57;;
3901;SDS011;1966;49.908;9.156;2022-12-11T08:51:28;38.70;;;20.87;;
3901;SDS011;1966;49.908;9.156;2022-12-11T08:56:29;43.47;;;22.10;;
3901;SDS011;1966;49.908;9.156;2022-12-11T09:01:29;38.67;;;21.70;;
3901;SDS011;1966;49.908;9.156;2022-12-11T09:06:28;47.93;;;23.87;;
3901;SDS011;1966;49.908;9.156;2022-12-11T09:11:31;46.37;;;24.03;;
3901;SDS011;1966;49.908;9.156;2022-12-11T09:16:31;44.57;;;23.20;;
3901;SDS011;1966;49.908;9.156;2022-12-11T09:21:30;38.60;;;20.17;;
3901;SDS011;1966;49.908;9.156;2022-12-11T09:26:31;49.17;;;25.23;;
3901;SDS011;1966;49.908;9.156;2022-12-11T09:31:32;44.47;;;23.90;;
3901;SDS011;1966;49.908;9.156;2022-12-11T09:36:31;44.40;;;23.90;;
3901;SDS011;1966;49.908;9.156;2022-12-11T09:41:36;42.70;;;21.10;;
3901;SDS011;1966;49.908;9.156;2022-12-11T09:46:36;40.10;;;21.17;;
3901;SDS011;1966;49.908;9.156;2022-12-11T09:51:38;38.70;;;21.10;;
3901;SDS011;1966;49.908;9.156;2022-12-11T09:56:41;39.20;;;20.47;;
3901;SDS011;1966;49.908;9.156;2022-12-11T10:01:42;46.43;;;22.93;;
3901;SDS011;1966;49.908;9.156;2022-12-11T10:06:45;42.20;;;24.20;;
3901;SDS011;1966;49.908;9.156;2022-12-11T10:11:49;38.53;;;20.10;;
3901;SDS011;1966;49.908;9.156;2022-12-11T10:16:51;44.13;;;22.47;;
3901;SDS011;1966;49.908;9.156;2022-12-11T10:21:50;43.23;;;21.07;;
3901;SDS011;1966;49.908;9.156;2022-12-11T10:26:52;42.90;;;22.43;;
3901;SDS011;1966;49.908;9.156;2022-12-11T10:31:53;37.40;;;20.60;;
3901;SDS011;1966;49.908;9.156;2022-12-11T10:36:53;43.00;;;23.90;;
3901;SDS011;1966;49.908;9.156;2022-12-11T10:41:54;47.63;;;23.50;;
3901;SDS011;1966;49.908;9.156;2022-12-11T10:47:01;41.67;;;21.67;;
3901;SDS011;1966;49.908;9.156;2022-12-11T10:52:01;40.10;;;20.60;;
3901;SDS011;1966;49.908;9.156;2022-12-11T10:57:09;46.30;;;21.67;;
3901;SDS011;1966;49.908;9.156;2022-12-11T11:02:16;39.47;;;21.13;;
3901;SDS011;1966;49.908;9.156;2022-12-11T11:07:19;39.60;;;20.43;;
3901;SDS011;1966;49.908;9.156;2022-12-11T11:12:21;45.17;;;22.90;;
3901;SDS011;1966;49.908;9.156;2022-12-11T11:17:21;45.70;;;24.50;;
3901;SDS011;1966;49.908;9.156;2022-12-11T11:22:20;44.73;;;22.10;;
3901;SDS011;1966;49.908;9.156;2022-12-11T11:27:24;41.67;;;20.70;;
3901;SDS011;1966;49.908;9.156;2022-12-11T11:32:28;34.23;;;18.33;;
3901;SDS011;1966;49.908;9.156;2022-12-11T11:37:30;38.57;;;20.43;;
3901;SDS011;1966;49.908;9.156;2022-12-11T11:42:35;55.27;;;26.37;;
3901;SDS011;1966;49.908;9.156;2022-12-11T11:47:36;40.60;;;22.07;;
3901;SDS011;1966;49.908;9.156;2022-12-11T11:52:39;47.87;;;23.47;;
3901;SDS011;1966;49.908;9.156;2022-12-11T11:57:44;36.70;;;18.87;;
3901;SDS011;1966;49.908;9.156;2022-12-11T12:02:47;32.23;;;18.20;;
3901;SDS011;1966;49.908;9.156;2022-12-11T12:07:49;38.20;;;19.90;;
3901;SDS011;1966;49.908;9.156;2022-12-11T12:12:55;34.83;;;20.13;;
3901;SDS011;1966;49.908;9.156;2022-12-11T12:17:56;37.13;;;20.97;;
3901;SDS011;1966;49.908;9.156;2022-12-11T12:22:59;35.23;;;19.40;;
3901;SDS011;1966;49.908;9.156;2022-12-11T12:28:04;37.60;;;19.77;;
3901;SDS011;1966;49.908;9.156;2022-12-11T12:33:18;39.00;;;19.37;;
3901;SDS011;1966;49.908;9.156;2022-12-11T12:38:25;26.63;;;15.43;;
3901;SDS011;1966;49.908;9.156;2022-12-11T12:43:40;29.40;;;15.30;;
3901;SDS011;1966;49.908;9.156;2022-12-11T12:48:42;26.63;;;14.30;;
3901;SDS011;1966;49.908;9.156;2022-12-11T12:53:45;24.10;;;13.97;;
3901;SDS011;1966;49.908;9.156;2022-12-11T12:58:48;26.13;;;15.10;;
3901;SDS011;1966;49.908;9.156;2022-12-11T13:03:49;24.30;;;13.47;;
3901;SDS011;1966;49.908;9.156;2022-12-11T13:08:49;25.13;;;14.67;;
3901;SDS011;1966;49.908;9.156;2022-12-11T13:14:00;36.77;;;21.87;;
3901;SDS011;1966;49.908;9.156;2022-12-11T13:19:00;33.67;;;18.40;;
3901;SDS011;1966;49.908;9.156;2022-12-11T13:24:11;31.00;;;16.70;;
3901;SDS011;1966;49.908;9.156;2022-12-11T13:29:29;30.30;;;17.80;;
3901;SDS011;1966;49.908;9.156;2022-12-11T13:34:30;31.37;;;18.20;;
3901;SDS011;1966;49.908;9.156;2022-12-11T13:39:31;33.50;;;17.60;;
3901;SDS011;1966;49.908;9.156;2022-12-11T13:44:33;35.30;;;18.50;;
3901;SDS011;1966;49.908;9.156;2022-12-11T13:49:36;30.17;;;16.73;;
3901;SDS011;1966;49.908;9.156;2022-12-11T13:54:36;27.10;;;15.43;;
3901;SDS011;1966;49.908;9.156;2022-12-11T13:59:47;29.43;;;15.33;;
3901;SDS011;1966;49.908;9.156;2022-12-11T14:04:47;31.57;;;16.53;;
3901;SDS011;1966;49.908;9.156;2022-12-11T14:09:47;32.80;;;17.30;;
3901;SDS011;1966;49.908;9.156;2022-12-11T14:14:49;31.90;;;17.00;;
3901;SDS011;1966;49.908;9.156;2022-12-11T14:19:49;29.27;;;14.90;;
3901;SDS011;1966;49.908;9.156;2022-12-11T14:24:49;28.13;;;14.57;;
3901;SDS011;1966;49.908;9.156;2022-12-11T14:29:49;30.00;;;15.27;;
3901;SDS011;1966;49.908;9.156;2022-12-11T14:34:49;29.97;;;16.63;;
3901;SDS011;1966;49.908;9.156;2022-12-11T14:39:53;25.67;;;15.27;;
3901;SDS011;1966;49.908;9.156;2022-12-11T14:44:59;30.10;;;17.07;;
3901;SDS011;1966;49.908;9.156;2022-12-11T14:50:00;23.30;;;12.50;;
3901;SDS011;1966;49.908;9.156;2022-12-11T14:55:02;25.57;;;13.77;;
3901;SDS011;1966;49.908;9.156;2022-12-11T15:00:05;28.07;;;16.00;;
3901;SDS011;1966;49.908;9.156;2022-12-11T15:05:12;32.73;;;19.80;;
3901;SDS011;1966;49.908;9.156;2022-12-11T15:10:22;40.80;;;22.97;;
3901;SDS011;1966;49.908;9.156;2022-12-11T15:15:23;42.27;;;23.07;;
3901;SDS011;1966;49.908;9.156;2022-12-11T15:20:24;34.60;;;19.37;;
3901;SDS011;1966;49.908;9.156;2022-12-11T15:25:24;46.33;;;22.93;;
3901;SDS011;1966;49.908;9.156;2022-12-11T15:30:27;38.33;;;20.00;;
3901;SDS011;1966;49.908;9.156;2022-12-11T15:35:27;35.43;;;17.97;;
3901;SDS011;1966;49.908;9.156;2022-12-11T15:40:26;31.77;;;18.03;;
3901;SDS011;1966;49.908;9.156;2022-12-11T15:45:27;34.93;;;16.97;;
3901;SDS011;1966;49.908;9.156;2022-12-11T15:50:27;29.60;;;15.60;;
3901;SDS011;1966;49.908;9.156;2022-12-11T15:55:27;31.13;;;16.60;;
3901;SDS011;1966;49.908;9.156;2022-12-11T16:00:32;37.17;;;18.97;;
3901;SDS011;1966;49.908;9.156;2022-12-11T16:05:32;30.50;;;17.20;;
3901;SDS011;1966;49.908;9.156;2022-12-11T16:10:31;28.53;;;15.30;;
3901;SDS011;1966;49.908;9.156;2022-12-11T16:15:30;31.20;;;16.50;;
3901;SDS011;1966;49.908;9.156;2022-12-11T16:20:31;32.50;;;16.73;;
3901;SDS011;1966;49.908;9.156;2022-12-11T16:25:30;29.23;;;15.03;;
3901;SDS011;1966;49.908;9.156;2022-12-11T16:30:30;27.67;;;15.27;;
3901;SDS011;1966;49.908;9.156;2022-12-11T16:35:31;29.70;;;14.53;;
3901;SDS011;1966;49.908;9.156;2022-12-11T16:40:31;41.10;;;23.23;;
3901;SDS011;1966;49.908;9.156;2022-12-11T16:45:30;32.73;;;17.37;;
3901;SDS011;1966;49.908;9.156;2022-12-11T16:50:29;31.03;;;17.20;;
3901;SDS011;1966;49.908;9.156;2022-12-11T16:55:30;30.37;;;16.30;;
3901;SDS011;1966;49.908;9.156;2022-12-11T17:00:29;26.87;;;15.23;;
3901;SDS011;1966;49.908;9.156;2022-12-11T17:05:29;30.37;;;16.00;;
3901;SDS011;1966;49.908;9.156;2022-12-11T17:10:28;30.33;;;17.00;;
3901;SDS011;1966;49.908;9.156;2022-12-11T17:15:29;29.93;;;16.30;;
3901;SDS011;1966;49.908;9.156;2022-12-11T17:20:28;34.90;;;18.07;;
3901;SDS011;1966;49.908;9.156;2022-12-11T17:25:28;33.40;;;18.77;;
3901;SDS011;1966;49.908;9.156;2022-12-11T17:30:29;41.93;;;22.00;;
3901;SDS011;1966;49.908;9.156;2022-12-11T17:35:30;40.30;;;20.47;;
3901;SDS011;1966;49.908;9.156;2022-12-11T17:40:29;34.07;;;20.13;;
3901;SDS011;1966;49.908;9.156;2022-12-11T17:45:30;39.90;;;20.70;;
3901;SDS011;1966;49.908;9.156;2022-12-11T17:50:29;36.53;;;20.73;;
3901;SDS011;1966;49.908;9.156;2022-12-11T17:55:29;33.57;;;17.70;;
3901;SDS011;1966;49.908;9.156;2022-12-11T18:00:30;31.00;;;17.83;;
3901;SDS011;1966;49.908;9.156;2022-12-11T18:05:29;30.23;;;17.47;;
3901;SDS011;1966;49.908;9.156;2022-12-11T18:10:29;29.90;;;16.30;;
3901;SDS011;1966;49.908;9.156;2022-12-11T18:15:28;36.23;;;19.27;;
3901;SDS011;1966;49.908;9.156;2022-12-11T18:20:29;35.30;;;18.17;;
3901;SDS011;1966;49.908;9.156;2022-12-11T18:25:28;36.10;;;19.37;;
3901;SDS011;1966;49.908;9.156;2022-12-11T18:30:27;32.03;;;17.33;;
3901;SDS011;1966;49.908;9.156;2022-12-11T18:35:28;31.73;;;16.70;;
3901;SDS011;1966;49.908;9.156;2022-12-11T18:40:28;32.20;;;16.43;;
3901;SDS011;1966;49.908;9.156;2022-12-11T18:45:28;27.47;;;14.07;;
3901;SDS011;1966;49.908;9.156;2022-12-11T18:50:28;33.90;;;16.37;;
3901;SDS011;1966;49.908;9.156;2022-12-11T18:55:28;33.07;;;16.40;;
3901;SDS011;1966;49.908;9.156;2022-12-11T19:00:27;31.90;;;17.70;;
3901;SDS011;1966;49.908;9.156;2022-12-11T19:05:28;35.13;;;17.37;;
3901;SDS011;1966;49.908;9.156;2022-12-11T19:10:28;36.53;;;18.93;;
3901;SDS011;1966;49.908;9.156;2022-12-11T19:15:27;32.53;;;16.40;;
3901;SDS011;1966;49.908;9.156;2022-12-11T19:20:27;35.50;;;16.90;;
3901;SDS011;1966;49.908;9.156;2022-12-11T19:25:27;35.50;;;15.17;;
3901;SDS011;1966;49.908;9.156;2022-12-11T19:30:26;29.57;;;16.20;;
3901;SDS011;1966;49.908;9.156;2022-12-11T19:35:26;32.63;;;15.80;;
3901;SDS011;1966;49.908;9.156;2022-12-11T19:40:25;26.40;;;15.27;;
3901;SDS011;1966;49.908;9.156;2022-12-11T19:45:26;32.80;;;16.60;;
3901;SDS011;1966;49.908;9.156;2022-12-11T19:50:25;30.07;;;15.97;;
3901;SDS011;1966;49.908;9.156;2022-12-11T19:55:24;34.30;;;16.30;;
3901;SDS011;1966;49.908;9.156;2022-12-11T20:00:25;30.20;;;15.50;;
3901;SDS011;1966;49.908;9.156;2022-12-11T20:05:24;29.67;;;15.23;;
3901;SDS011;1966;49.908;9.156;2022-12-11T20:10:23;29.30;;;15.07;;
3901;SDS011;1966;49.908;9.156;2022-12-11T20:15:23;30.60;;;14.70;;
3901;SDS011;1966;49.908;9.156;2022-12-11T20:20:25;27.00;;;14.43;;
3901;SDS011;1966;49.908;9.156;2022-12-11T20:25:25;28.93;;;15.13;;
3901;SDS011;1966;49.908;9.156;2022-12-11T20:30:24;34.40;;;16.67;;
3901;SDS011;1966;49.908;9.156;2022-12-11T20:35:25;30.37;;;16.50;;
3901;SDS011;1966;49.908;9.156;2022-12-11T20:40:24;32.90;;;16.40;;
3901;SDS011;1966;49.908;9.156;2022-12-11T20:45:23;34.37;;;17.57;;
3901;SDS011;1966;49.908;9.156;2022-12-11T20:50:24;36.50;;;16.57;;
3901;SDS011;1966;49.908;9.156;2022-12-11T20:55:23;39.13;;;19.97;;
3901;SDS011;1966;49.908;9.156;2022-12-11T21:00:23;31.43;;;17.97;;
3901;SDS011;1966;49.908;9.156;2022-12-11T21:05:24;38.00;;;18.73;;
3901;SDS011;1966;49.908;9.156;2022-12-11T21:10:24;36.83;;;19.17;;
3901;SDS011;1966;49.908;9.156;2022-12-11T21:15:23;33.43;;;17.73;;
3901;SDS011;1966;49.908;9.156;2022-12-11T21:20:22;32.90;;;16.80;;
3901;SDS011;1966;49.908;9.156;2022-12-11T21:25:23;35.13;;;19.07;;
3901;SDS011;1966;49.908;9.156;2022-12-11T21:30:23;37.93;;;18.77;;
3901;SDS011;1966;49.908;9.156;2022-12-11T21:35:22;37.63;;;18.73;;
3901;SDS011;1966;49.908;9.156;2022-12-11T21:40:23;35.47;;;18.50;;
3901;SDS011;1966;49.908;9.156;2022-12-11T21:45:22;36.97;;;18.23;;
3901;SDS011;1966;49.908;9.156;2022-12-11T21:50:22;35.10;;;17.70;;
3901;SDS011;1966;49.908;9.156;2022-12-11T21:55:22;36.10;;;17.53;;
3901;SDS011;1966;49.908;9.156;2022-12-11T22:00:22;40.40;;;18.97;;
3901;SDS011;1966;49.908;9.156;2022-12-11T22:05:21;40.33;;;19.87;;
3901;SDS011;1966;49.908;9.156;2022-12-11T22:10:22;36.63;;;19.67;;
3901;SDS011;1966;49.908;9.156;2022-12-11T22:15:21;37.43;;;18.70;;
3901;SDS011;1966;49.908;9.156;2022-12-11T22:20:21;35.00;;;18.90;;
3901;SDS011;1966;49.908;9.156;2022-12-11T22:25:20;40.03;;;18.40;;
3901;SDS011;1966;49.908;9.156;2022-12-11T22:30:21;36.03;;;17.53;;
3901;SDS011;1966;49.908;9.156;2022-12-11T22:35:20;37.03;;;17.53;;
3901;SDS011;1966;49.908;9.156;2022-12-11T22:40:19;35.13;;;17.30;;
3901;SDS011;1966;49.908;9.156;2022-12-11T22:45:20;38.03;;;18.73;;
3901;SDS011;1966;49.908;9.156;2022-12-11T22:50:20;33.40;;;18.50;;
3901;SDS011;1966;49.908;9.156;2022-12-11T22:55:19;32.93;;;16.53;;
3901;SDS011;1966;49.908;9.156;2022-12-11T23:00:19;32.00;;;17.30;;
3901;SDS011;1966;49.908;9.156;2022-12-11T23:05:19;36.17;;;18.17;;
3901;SDS011;1966;49.908;9.156;2022-12-11T23:10:19;39.73;;;18.53;;
3901;SDS011;1966;49.908;9.156;2022-12-11T23:15:18;35.90;;;17.70;;
3901;SDS011;1966;49.908;9.156;2022-12-11T23:20:17;35.27;;;17.97;;
3901;SDS011;1966;49.908;9.156;2022-12-11T23:25:18;38.37;;;18.60;;
3901;SDS011;1966;49.908;9.156;2022-12-11T23:30:18;35.03;;;17.67;;
3901;SDS011;1966;49.908;9.156;2022-12-11T23:35:17;33.70;;;17.13;;
3901;SDS011;1966;49.908;9.156;2022-12-11T23:40:16;34.50;;;17.40;;
3901;SDS011;1966;49.908;9.156;2022-12-11T23:45:17;33.20;;;16.60;;
3901;SDS011;1966;49.908;9.156;2022-12-11T23:50:18;30.77;;;15.67;;
3901;SDS011;1966;49.908;9.156;2022-12-11T23:55:17;28.37;;;15.33;;
